createdAt,value
2022-12-11T00:00:22.623Z,24.27
2022-12-11T00:02:49.372Z,25.50
2022-12-11T00:05:15.736Z,24.58
2022-12-11T00:07:42.180Z,23.10
2022-12-11T00:10:09.416Z,23.90
2022-12-11T00:12:35.798Z,26.13
2022-12-11T00:15:02.093Z,23.15
2022-12-11T00:17:28.416Z,24.00
2022-12-11T00:19:54.754Z,25.17
2022-12-11T00:22:21.103Z,25.10
2022-12-11T00:24:47.386Z,24.30
2022-12-11T00:27:13.726Z,24.38
2022-12-11T00:29:40.115Z,23.52
2022-12-11T00:32:06.545Z,24.40
2022-12-11T00:34:32.870Z,25.70
2022-12-11T00:36:59.269Z,26.23
2022-12-11T00:39:25.672Z,23.70
2022-12-11T00:41:52.030Z,24.33
2022-12-11T00:44:18.306Z,25.38
2022-12-11T00:46:44.694Z,25.00
2022-12-11T00:49:11.017Z,23.92
2022-12-11T00:51:38.050Z,24.13
2022-12-11T00:54:04.528Z,24.02
2022-12-11T00:56:30.854Z,23.92
2022-12-11T00:58:57.248Z,23.75
2022-12-11T01:01:25.170Z,25.35
2022-12-11T01:03:51.976Z,23.20
2022-12-11T01:06:20.176Z,23.77
2022-12-11T01:08:47.180Z,24.55
2022-12-11T01:11:14.765Z,23.92
2022-12-11T01:13:41.740Z,23.98
2022-12-11T01:16:12.658Z,26.55
2022-12-11T01:18:38.994Z,27.35
2022-12-11T01:21:09.638Z,27.80
2022-12-11T01:23:36.017Z,27.60
2022-12-11T01:26:20.501Z,24.52
2022-12-11T01:28:49.393Z,25.38
2022-12-11T01:31:16.837Z,25.42
2022-12-11T01:33:43.702Z,28.10
2022-12-11T01:36:11.798Z,26.13
2022-12-11T01:38:38.193Z,26.08
2022-12-11T01:41:04.595Z,25.15
2022-12-11T01:43:30.900Z,26.05
2022-12-11T01:45:57.239Z,27.70
2022-12-11T01:48:25.450Z,27.00
2022-12-11T01:51:05.014Z,25.90
2022-12-11T01:53:33.820Z,26.45
2022-12-11T01:56:00.369Z,28.33
2022-12-11T01:58:29.579Z,27.85
2022-12-11T02:00:56.556Z,26.60
2022-12-11T02:03:23.063Z,27.70
2022-12-11T02:05:49.518Z,29.45
2022-12-11T02:08:16.245Z,27.35
2022-12-11T02:10:53.808Z,27.00
2022-12-11T02:13:33.205Z,26.27
2022-12-11T02:16:06.446Z,27.05
2022-12-11T02:18:38.853Z,24.83
2022-12-11T02:21:23.801Z,27.63
2022-12-11T02:24:02.786Z,27.60
2022-12-11T02:26:32.094Z,27.70
2022-12-11T02:28:59.546Z,24.42
2022-12-11T02:31:44.370Z,26.23
2022-12-11T02:34:18.314Z,27.75
2022-12-11T02:36:48.369Z,27.20
2022-12-11T02:39:15.811Z,25.63
2022-12-11T02:41:43.902Z,27.05
2022-12-11T02:44:12.628Z,27.20
2022-12-11T02:46:39.552Z,27.75
2022-12-11T02:49:07.141Z,25.88
2022-12-11T02:51:36.170Z,24.30
2022-12-11T02:54:03.128Z,27.13
2022-12-11T02:56:32.759Z,26.58
2022-12-11T02:59:06.733Z,27.40
2022-12-11T03:01:33.112Z,26.70
2022-12-11T03:03:59.563Z,24.85
2022-12-11T03:06:29.321Z,26.80
2022-12-11T03:08:55.703Z,25.23
2022-12-11T03:11:21.990Z,27.15
2022-12-11T03:13:48.335Z,25.25
2022-12-11T03:16:19.865Z,26.80
2022-12-11T03:19:08.978Z,25.83
2022-12-11T03:21:38.434Z,25.25
2022-12-11T03:24:13.933Z,25.02
2022-12-11T03:26:43.974Z,24.48
2022-12-11T03:29:16.627Z,22.88
2022-12-11T03:31:51.125Z,22.50
2022-12-11T03:34:26.829Z,25.83
2022-12-11T03:39:22.947Z,23.52
2022-12-11T03:41:50.846Z,21.55
2022-12-11T03:44:18.224Z,22.58
2022-12-11T03:46:46.784Z,24.02
2022-12-11T03:49:16.623Z,21.27
2022-12-11T03:51:44.669Z,23.13
2022-12-11T03:54:11.896Z,23.35
2022-12-11T03:56:38.588Z,24.58
2022-12-11T03:59:04.978Z,23.13
2022-12-11T04:01:31.367Z,23.50
2022-12-11T04:03:57.706Z,22.73
2022-12-11T04:06:24.065Z,24.75
2022-12-11T04:08:50.423Z,24.13
2022-12-11T04:11:35.067Z,23.20
2022-12-11T04:14:24.111Z,22.17
2022-12-11T04:16:50.668Z,22.15
2022-12-11T04:19:35.884Z,23.95
2022-12-11T04:22:20.602Z,21.80
2022-12-11T04:24:50.180Z,22.98
2022-12-11T04:27:39.462Z,22.25
2022-12-11T04:30:06.873Z,20.70
2022-12-11T04:32:33.199Z,21.38
2022-12-11T04:34:59.576Z,21.98
2022-12-11T04:37:26.936Z,19.15
2022-12-11T04:39:53.252Z,18.27
2022-12-11T04:42:19.812Z,18.40
2022-12-11T04:44:46.118Z,17.90
2022-12-11T04:47:12.742Z,17.80
2022-12-11T04:49:39.255Z,19.95
2022-12-11T04:52:05.663Z,19.38
2022-12-11T04:54:32.531Z,19.60
2022-12-11T04:56:58.822Z,19.38
2022-12-11T04:59:25.089Z,20.20
2022-12-11T05:01:51.498Z,19.08
2022-12-11T05:04:17.849Z,18.48
2022-12-11T05:06:44.204Z,20.52
2022-12-11T05:09:11.856Z,18.75
2022-12-11T05:11:38.179Z,20.02
2022-12-11T05:14:04.803Z,21.58
2022-12-11T05:16:31.125Z,18.98
2022-12-11T05:18:57.422Z,18.27
2022-12-11T05:21:23.801Z,19.85
2022-12-11T05:23:50.131Z,19.40
2022-12-11T05:26:17.693Z,18.98
2022-12-11T05:28:44.568Z,19.30
2022-12-11T05:31:18.379Z,19.27
2022-12-11T05:33:45.402Z,20.15
2022-12-11T05:36:25.415Z,17.55
2022-12-11T05:38:52.342Z,18.48
2022-12-11T05:41:20.365Z,18.08
2022-12-11T05:43:47.271Z,19.05
2022-12-11T05:46:20.839Z,18.85
2022-12-11T05:48:49.307Z,18.80
2022-12-11T05:51:16.251Z,18.42
2022-12-11T05:53:43.080Z,17.50
2022-12-11T05:56:13.777Z,17.88
2022-12-11T05:58:40.880Z,17.65
2022-12-11T06:01:08.185Z,18.05
2022-12-11T06:03:34.508Z,17.90
2022-12-11T06:06:07.168Z,16.65
2022-12-11T06:08:33.758Z,16.90
2022-12-11T06:11:00.168Z,18.77
2022-12-11T06:13:26.758Z,19.13
2022-12-11T06:15:53.124Z,17.80
2022-12-11T06:18:19.561Z,18.00
2022-12-11T06:20:45.981Z,18.67
2022-12-11T06:23:12.693Z,15.85
2022-12-11T06:25:39.700Z,18.20
2022-12-11T06:28:06.075Z,17.92
2022-12-11T06:30:39.267Z,17.33
2022-12-11T06:33:06.152Z,16.98
2022-12-11T06:35:36.156Z,17.90
2022-12-11T06:38:06.558Z,16.77
2022-12-11T06:40:32.902Z,17.75
2022-12-11T06:42:59.196Z,18.60
2022-12-11T06:45:25.475Z,18.98
2022-12-11T06:47:51.859Z,16.88
2022-12-11T06:50:18.167Z,16.73
2022-12-11T06:52:44.496Z,17.25
2022-12-11T06:55:11.201Z,15.82
2022-12-11T06:57:37.600Z,16.95
2022-12-11T07:00:04.405Z,17.48
2022-12-11T07:02:30.703Z,17.48
2022-12-11T07:04:57.007Z,16.60
2022-12-11T07:07:23.338Z,17.85
2022-12-11T07:09:49.603Z,15.48
2022-12-11T07:12:16.978Z,16.30
2022-12-11T07:14:43.785Z,17.23
2022-12-11T07:17:10.079Z,17.88
2022-12-11T07:19:36.392Z,18.38
2022-12-11T07:22:02.860Z,17.48
2022-12-11T07:24:29.184Z,19.08
2022-12-11T07:26:55.502Z,20.30
2022-12-11T07:29:21.837Z,18.83
2022-12-11T07:31:48.421Z,19.83
2022-12-11T07:34:14.756Z,18.98
2022-12-11T07:36:41.243Z,19.55
2022-12-11T07:39:08.959Z,19.35
2022-12-11T07:41:35.333Z,20.15
2022-12-11T07:44:02.664Z,19.35
2022-12-11T07:46:29.922Z,19.85
2022-12-11T07:48:56.215Z,19.77
2022-12-11T07:51:26.371Z,19.67
2022-12-11T07:53:53.160Z,19.75
2022-12-11T07:56:19.552Z,20.65
2022-12-11T07:58:46.160Z,19.95
2022-12-11T08:01:13.783Z,19.23
2022-12-11T08:03:40.334Z,19.13
2022-12-11T08:06:06.822Z,18.67
2022-12-11T08:08:33.081Z,19.08
2022-12-11T08:11:03.527Z,19.15
2022-12-11T08:13:29.900Z,18.58
2022-12-11T08:15:56.261Z,19.38
2022-12-11T08:18:22.594Z,21.02
2022-12-11T08:20:48.922Z,19.73
2022-12-11T08:23:15.170Z,19.88
2022-12-11T08:25:41.434Z,20.40
2022-12-11T08:28:07.762Z,18.75
2022-12-11T08:30:34.134Z,20.05
2022-12-11T08:33:00.425Z,20.58
2022-12-11T08:35:26.936Z,20.10
2022-12-11T08:37:53.213Z,20.58
2022-12-11T08:40:20.293Z,20.42
2022-12-11T08:42:46.566Z,19.98
2022-12-11T08:45:13.130Z,19.08
2022-12-11T08:47:39.667Z,19.98
2022-12-11T08:50:06.314Z,20.42
2022-12-11T08:52:34.428Z,19.55
2022-12-11T08:55:00.726Z,20.98
2022-12-11T08:57:27.817Z,19.80
2022-12-11T08:59:54.141Z,20.60
2022-12-11T09:02:20.443Z,20.70
2022-12-11T09:04:46.807Z,20.45
2022-12-11T09:07:13.084Z,20.70
2022-12-11T09:09:39.446Z,19.92
2022-12-11T09:12:05.836Z,19.90
2022-12-11T09:14:32.239Z,20.77
2022-12-11T09:16:58.557Z,20.42
2022-12-11T09:19:30.622Z,20.17
2022-12-11T09:21:58.632Z,18.95
2022-12-11T09:24:24.908Z,20.25
2022-12-11T09:26:51.232Z,19.23
2022-12-11T09:29:17.515Z,17.83
2022-12-11T09:31:44.254Z,18.60
2022-12-11T09:34:12.287Z,19.92
2022-12-11T09:36:40.036Z,18.88
2022-12-11T09:39:08.305Z,19.05
2022-12-11T09:41:47.942Z,18.58
2022-12-11T09:44:29.555Z,18.70
2022-12-11T09:46:56.954Z,16.90
2022-12-11T09:49:29.186Z,18.75
2022-12-11T09:52:14.253Z,17.77
2022-12-11T09:54:54.527Z,17.52
2022-12-11T09:57:20.825Z,17.88
2022-12-11T10:00:05.989Z,17.00
2022-12-11T10:02:38.623Z,17.63
2022-12-11T10:05:04.922Z,18.95
2022-12-11T10:07:34.245Z,16.83
2022-12-11T10:10:03.526Z,18.73
2022-12-11T10:12:33.494Z,17.60
2022-12-11T10:14:59.896Z,18.42
2022-12-11T10:17:31.037Z,17.42
2022-12-11T10:19:58.473Z,17.38
2022-12-11T10:22:27.184Z,16.75
2022-12-11T10:25:16.289Z,17.05
2022-12-11T10:27:43.886Z,17.75
2022-12-11T10:30:13.956Z,17.38
2022-12-11T10:32:48.605Z,18.67
2022-12-11T10:35:23.780Z,17.55
2022-12-11T10:37:50.511Z,18.60
2022-12-11T10:40:18.220Z,18.60
2022-12-11T10:42:52.260Z,18.10
2022-12-11T10:45:18.716Z,17.48
2022-12-11T10:47:45.804Z,17.52
2022-12-11T10:50:22.998Z,17.10
2022-12-11T10:52:49.410Z,17.17
2022-12-11T10:55:27.286Z,16.88
2022-12-11T10:57:54.693Z,17.27
2022-12-11T11:00:33.083Z,17.13
2022-12-11T11:02:59.948Z,17.90
2022-12-11T11:05:34.634Z,17.92
2022-12-11T11:08:13.001Z,14.15
2022-12-11T11:10:49.633Z,16.42
2022-12-11T11:13:15.895Z,17.17
2022-12-11T11:15:42.999Z,15.25
2022-12-11T11:18:22.298Z,16.17
2022-12-11T11:20:48.670Z,15.35
2022-12-11T11:23:15.933Z,16.08
2022-12-11T11:25:50.253Z,15.30
2022-12-11T11:28:21.493Z,16.63
2022-12-11T11:30:58.997Z,15.88
2022-12-11T11:33:25.583Z,16.02
2022-12-11T11:35:57.013Z,16.23
2022-12-11T11:38:26.235Z,15.48
2022-12-11T11:40:52.540Z,15.38
2022-12-11T11:43:22.649Z,15.95
2022-12-11T11:45:53.677Z,15.20
2022-12-11T11:48:25.907Z,15.40
2022-12-11T11:50:53.890Z,16.20
2022-12-11T11:53:31.571Z,14.98
2022-12-11T11:56:03.965Z,15.68
2022-12-11T11:58:43.073Z,15.63
2022-12-11T12:01:16.309Z,14.98
2022-12-11T12:03:43.081Z,16.08
2022-12-11T12:06:19.004Z,15.63
2022-12-11T12:08:51.156Z,13.07
2022-12-11T12:11:30.974Z,13.35
2022-12-11T12:14:43.588Z,14.13
2022-12-11T12:17:25.239Z,14.43
2022-12-11T12:19:57.656Z,12.52
2022-12-11T12:22:35.010Z,14.00
2022-12-11T12:25:14.576Z,14.52
2022-12-11T12:28:07.076Z,13.93
2022-12-11T12:30:54.573Z,13.32
2022-12-11T12:33:44.239Z,13.88
2022-12-11T12:36:13.334Z,12.57
2022-12-11T12:38:53.779Z,12.68
2022-12-11T12:41:22.525Z,13.60
2022-12-11T12:44:02.979Z,13.70
2022-12-11T12:46:48.426Z,13.10
2022-12-11T12:49:23.895Z,13.25
2022-12-11T12:51:51.496Z,14.80
2022-12-11T12:54:18.886Z,13.73
2022-12-11T12:56:47.006Z,14.68
2022-12-11T12:59:20.636Z,14.82
2022-12-11T13:01:48.271Z,14.13
2022-12-11T13:04:54.458Z,15.30
2022-12-11T13:07:20.473Z,14.23
2022-12-11T13:10:00.424Z,14.60
2022-12-11T13:12:32.506Z,15.02
2022-12-11T13:14:59.510Z,14.73
2022-12-11T13:17:34.700Z,16.88
2022-12-11T13:20:15.031Z,15.55
2022-12-11T13:22:53.600Z,15.35
2022-12-11T13:25:30.475Z,15.20
2022-12-11T13:28:20.001Z,14.75
2022-12-11T13:30:57.375Z,14.55
2022-12-11T13:33:24.116Z,16.33
2022-12-11T13:36:25.785Z,15.75
2022-12-11T13:38:54.837Z,14.77
2022-12-11T13:41:21.405Z,14.65
2022-12-11T13:43:49.045Z,15.68
2022-12-11T13:46:19.313Z,15.65
2022-12-11T13:48:50.572Z,15.18
2022-12-11T13:51:18.708Z,14.10
2022-12-11T13:53:45.261Z,15.48
2022-12-11T13:56:18.943Z,15.60
2022-12-11T13:58:45.380Z,14.65
2022-12-11T14:01:22.503Z,17.55
2022-12-11T14:03:56.376Z,15.98
2022-12-11T14:06:23.845Z,16.10
2022-12-11T14:08:53.418Z,17.23
2022-12-11T14:11:24.799Z,16.42
2022-12-11T14:13:51.115Z,18.15
2022-12-11T14:16:22.221Z,16.48
2022-12-11T14:18:49.622Z,16.17
2022-12-11T14:21:20.380Z,16.00
2022-12-11T14:23:54.450Z,16.70
2022-12-11T14:26:23.437Z,16.90
2022-12-11T14:28:49.834Z,14.95
2022-12-11T14:31:18.206Z,18.65
2022-12-11T14:33:47.950Z,16.73
2022-12-11T14:36:15.242Z,18.48
2022-12-11T14:38:47.182Z,17.00
2022-12-11T14:41:16.146Z,17.88
2022-12-11T14:43:44.125Z,16.63
2022-12-11T14:46:15.699Z,16.42
2022-12-11T14:48:47.967Z,17.67
2022-12-11T14:51:16.104Z,16.13
2022-12-11T14:53:44.691Z,18.48
2022-12-11T14:56:17.430Z,16.75
2022-12-11T14:58:48.007Z,17.63
2022-12-11T15:01:31.113Z,18.45
2022-12-11T15:04:16.023Z,16.75
2022-12-11T15:06:44.226Z,16.23
2022-12-11T15:09:25.144Z,17.95
2022-12-11T15:11:52.188Z,16.90
2022-12-11T15:14:19.656Z,16.85
2022-12-11T15:16:47.433Z,18.52
2022-12-11T15:19:20.060Z,17.30
2022-12-11T15:21:46.513Z,18.10
2022-12-11T15:24:22.515Z,19.38
2022-12-11T15:26:48.848Z,16.65
2022-12-11T15:29:27.394Z,18.65
2022-12-11T15:32:09.160Z,19.20
2022-12-11T15:34:42.231Z,18.27
2022-12-11T15:37:40.039Z,17.00
2022-12-11T15:40:06.598Z,18.60
2022-12-11T15:42:32.981Z,18.33
2022-12-11T15:44:59.670Z,17.90
2022-12-11T15:47:27.650Z,18.23
2022-12-11T15:49:55.061Z,17.80
2022-12-11T15:52:21.367Z,18.73
2022-12-11T15:54:47.652Z,17.40
2022-12-11T15:57:16.543Z,15.65
2022-12-11T15:59:43.207Z,17.50
2022-12-11T16:02:11.368Z,16.98
2022-12-11T16:04:37.678Z,18.17
2022-12-11T16:07:04.121Z,16.10
2022-12-11T16:09:30.468Z,16.42
2022-12-11T16:11:56.821Z,17.63
2022-12-11T16:14:23.054Z,16.42
2022-12-11T16:16:49.331Z,18.33
2022-12-11T16:19:15.662Z,17.40
2022-12-11T16:21:42.490Z,16.35
2022-12-11T16:24:08.847Z,17.27
2022-12-11T16:26:35.150Z,17.00
2022-12-11T16:29:01.682Z,18.33
2022-12-11T16:31:28.849Z,18.73
2022-12-11T16:33:55.187Z,17.38
2022-12-11T16:36:21.570Z,17.75
2022-12-11T16:38:53.146Z,18.33
2022-12-11T16:41:20.478Z,17.40
2022-12-11T16:43:47.703Z,16.52
2022-12-11T16:46:17.447Z,18.33
2022-12-11T16:48:44.606Z,18.92
2022-12-11T16:51:11.190Z,19.77
2022-12-11T16:53:37.594Z,18.67
2022-12-11T16:56:05.286Z,19.08
2022-12-11T16:58:31.639Z,19.65
2022-12-11T17:01:02.206Z,18.27
2022-12-11T17:03:30.036Z,18.65
2022-12-11T17:05:56.691Z,17.50
2022-12-11T17:08:25.123Z,17.83
2022-12-11T17:10:52.007Z,16.08
2022-12-11T17:13:18.472Z,15.05
2022-12-11T17:15:45.082Z,16.05
2022-12-11T17:18:12.229Z,15.63
2022-12-11T17:20:42.331Z,16.58
2022-12-11T17:23:10.385Z,19.33
2022-12-11T17:25:43.882Z,18.45
2022-12-11T17:28:10.725Z,17.52
2022-12-11T17:30:44.470Z,19.52
2022-12-11T17:33:11.344Z,18.35
2022-12-11T17:35:37.908Z,17.10
2022-12-11T17:38:04.955Z,16.95
2022-12-11T17:40:31.420Z,17.60
2022-12-11T17:42:57.700Z,18.55
2022-12-11T17:45:24.034Z,18.00
2022-12-11T17:47:50.340Z,17.33
2022-12-11T17:50:16.918Z,16.60
2022-12-11T17:52:44.478Z,17.55
2022-12-11T17:55:11.793Z,18.40
2022-12-11T17:57:38.429Z,18.65
2022-12-11T18:00:05.434Z,17.40
2022-12-11T18:02:32.032Z,17.55
2022-12-11T18:04:58.342Z,17.23
2022-12-11T18:07:25.209Z,17.05
2022-12-11T18:09:51.550Z,18.33
2022-12-11T18:12:17.895Z,17.48
2022-12-11T18:14:44.410Z,17.77
2022-12-11T18:17:10.714Z,17.20
2022-12-11T18:19:41.417Z,16.92
2022-12-11T18:22:11.052Z,16.85
2022-12-11T18:24:37.598Z,16.17
2022-12-11T18:27:04.115Z,16.00
2022-12-11T18:29:30.410Z,15.60
2022-12-11T18:31:56.754Z,16.98
2022-12-11T18:34:23.110Z,16.50
2022-12-11T18:36:49.429Z,15.27
2022-12-11T18:39:16.141Z,14.98
2022-12-11T18:41:42.525Z,14.40
2022-12-11T18:44:10.123Z,15.00
2022-12-11T18:46:36.830Z,15.65
2022-12-11T18:49:03.360Z,14.27
2022-12-11T18:51:30.255Z,14.02
2022-12-11T18:53:56.567Z,15.10
2022-12-11T18:56:22.833Z,15.20
2022-12-11T18:58:49.461Z,14.43
2022-12-11T19:01:20.389Z,15.63
2022-12-11T19:03:47.418Z,15.52
2022-12-11T19:06:17.675Z,14.45
2022-12-11T19:08:44.323Z,15.15
2022-12-11T19:11:14.335Z,16.60
2022-12-11T19:13:40.651Z,13.98
2022-12-11T19:16:07.200Z,14.73
2022-12-11T19:18:33.602Z,13.80
2022-12-11T19:21:08.466Z,14.73
2022-12-11T19:23:35.275Z,15.60
2022-12-11T19:26:01.712Z,14.95
2022-12-11T19:28:28.015Z,14.90
2022-12-11T19:30:54.437Z,14.70
2022-12-11T19:33:21.061Z,15.75
2022-12-11T19:35:47.490Z,15.18
2022-12-11T19:38:14.281Z,15.00
2022-12-11T19:40:42.338Z,14.10
2022-12-11T19:43:09.101Z,15.00
2022-12-11T19:45:35.737Z,15.75
2022-12-11T19:48:02.096Z,15.77
2022-12-11T19:50:28.406Z,14.93
2022-12-11T19:52:55.071Z,13.52
2022-12-11T19:55:21.624Z,14.50
2022-12-11T19:57:48.059Z,15.55
2022-12-11T20:00:14.713Z,14.38
2022-12-11T20:02:41.485Z,15.02
2022-12-11T20:05:08.140Z,13.75
2022-12-11T20:07:34.503Z,12.70
2022-12-11T20:10:00.835Z,13.40
2022-12-11T20:12:27.369Z,14.10
2022-12-11T20:14:53.855Z,13.57
2022-12-11T20:17:20.141Z,14.77
2022-12-11T20:19:46.462Z,13.60
2022-12-11T20:22:12.759Z,14.40
2022-12-11T20:24:39.327Z,13.70
2022-12-11T20:27:05.629Z,13.32
2022-12-11T20:29:32.305Z,13.77
2022-12-11T20:32:00.397Z,14.95
2022-12-11T20:34:27.278Z,13.82
2022-12-11T20:36:54.046Z,12.73
2022-12-11T20:39:20.362Z,13.77
2022-12-11T20:41:46.691Z,13.95
2022-12-11T20:44:13.333Z,14.02
2022-12-11T20:46:39.655Z,14.00
2022-12-11T20:49:09.794Z,13.43
2022-12-11T20:51:36.130Z,14.05
2022-12-11T20:54:02.498Z,12.55
2022-12-11T20:56:29.614Z,12.90
2022-12-11T20:58:56.390Z,13.73
2022-12-11T21:01:23.347Z,13.77
2022-12-11T21:03:50.320Z,13.95
2022-12-11T21:06:19.621Z,14.35
2022-12-11T21:08:45.992Z,14.23
2022-12-11T21:11:12.696Z,14.05
2022-12-11T21:13:38.994Z,14.18
2022-12-11T21:16:06.242Z,13.77
2022-12-11T21:18:33.357Z,12.95
2022-12-11T21:20:59.889Z,14.57
2022-12-11T21:23:26.405Z,13.55
2022-12-11T21:25:53.266Z,13.80
2022-12-11T21:28:19.674Z,14.05
2022-12-11T21:30:46.205Z,15.30
2022-12-11T21:33:12.733Z,14.05
2022-12-11T21:35:39.308Z,13.32
2022-12-11T21:38:05.665Z,14.35
2022-12-11T21:40:31.940Z,13.50
2022-12-11T21:42:58.252Z,13.55
2022-12-11T21:45:59.706Z,14.10
2022-12-11T21:48:11.520Z,14.35
2022-12-11T21:50:37.752Z,13.15
2022-12-11T21:53:04.359Z,13.02
2022-12-11T21:55:30.670Z,14.55
2022-12-11T21:57:56.975Z,13.80
2022-12-11T22:00:23.384Z,14.30
2022-12-11T22:02:49.894Z,14.23
2022-12-11T22:05:16.323Z,12.95
2022-12-11T22:07:42.677Z,14.30
2022-12-11T22:10:09.276Z,14.60
2022-12-11T22:12:35.615Z,13.93
2022-12-11T22:15:02.121Z,12.73
2022-12-11T22:17:28.518Z,13.93
2022-12-11T22:19:54.811Z,13.90
2022-12-11T22:22:21.262Z,13.98
2022-12-11T22:24:47.622Z,12.93
2022-12-11T22:27:16.805Z,14.40
2022-12-11T22:29:46.856Z,14.07
2022-12-11T22:32:13.405Z,14.88
2022-12-11T22:34:40.416Z,13.13
2022-12-11T22:37:06.711Z,14.80
2022-12-11T22:39:32.971Z,13.10
2022-12-11T22:41:59.682Z,14.20
2022-12-11T22:44:25.978Z,12.43
2022-12-11T22:46:52.284Z,14.30
2022-12-11T22:49:19.376Z,14.52
2022-12-11T22:51:45.953Z,14.93
2022-12-11T22:54:12.658Z,14.15
2022-12-11T22:56:39.132Z,14.50
2022-12-11T22:59:07.352Z,15.02
2022-12-11T23:01:34.169Z,14.07
2022-12-11T23:04:00.519Z,13.55
2022-12-11T23:06:26.848Z,13.82
2022-12-11T23:08:55.057Z,13.70
2022-12-11T23:11:26.317Z,14.68
2022-12-11T23:13:53.634Z,14.20
2022-12-11T23:16:20.234Z,13.65
2022-12-11T23:18:46.613Z,14.55
2022-12-11T23:21:13.519Z,14.63
2022-12-11T23:23:39.825Z,14.68
2022-12-11T23:26:06.797Z,13.35
2022-12-11T23:28:33.227Z,14.68
2022-12-11T23:30:59.660Z,14.57
2022-12-11T23:33:26.188Z,13.70
2022-12-11T23:35:52.489Z,15.30
2022-12-11T23:38:18.788Z,13.15
2022-12-11T23:40:45.084Z,15.35
2022-12-11T23:43:11.668Z,13.85
2022-12-11T23:45:37.962Z,14.35
2022-12-11T23:48:04.445Z,14.18
2022-12-11T23:50:32.768Z,15.05
2022-12-11T23:52:59.080Z,13.55
2022-12-11T23:55:25.443Z,14.35
2022-12-11T23:57:51.701Z,15.73
